sensor_id;sensor_type;location;lat;lon;timestamp;P1;durP1;ratioP1;P2;durP2;ratioP2
52918;SDS011;38793;52.690;6.812;2024-01-11T00:02:21;35.47;;;20.10;;
52918;SDS011;38793;52.690;6.812;2024-01-11T00:04:47;36.80;;;21.30;;
52918;SDS011;38793;52.690;6.812;2024-01-11T00:07:12;36.67;;;20.77;;
52918;SDS011;38793;52.690;6.812;2024-01-11T00:09:41;39.13;;;22.37;;
52918;SDS011;38793;52.690;6.812;2024-01-11T00:12:07;32.03;;;20.13;;
52918;SDS011;38793;52.690;6.812;2024-01-11T00:14:33;36.45;;;22.00;;
52918;SDS011;38793;52.690;6.812;2024-01-11T00:19:25;36.28;;;21.55;;
52918;SDS011;38793;52.690;6.812;2024-01-11T00:21:51;36.67;;;20.37;;
52918;SDS011;38793;52.690;6.812;2024-01-11T00:24:17;33.27;;;20.60;;
52918;SDS011;38793;52.690;6.812;2024-01-11T00:26:42;38.10;;;22.90;;
52918;SDS011;38793;52.690;6.812;2024-01-11T00:29:08;34.05;;;21.88;;
52918;SDS011;38793;52.690;6.812;2024-01-11T00:31:34;35.00;;;21.87;;
52918;SDS011;38793;52.690;6.812;2024-01-11T00:34:00;38.47;;;20.73;;
52918;SDS011;38793;52.690;6.812;2024-01-11T00:36:26;34.80;;;21.48;;
52918;SDS011;38793;52.690;6.812;2024-01-11T00:38:53;36.25;;;20.30;;
52918;SDS011;38793;52.690;6.812;2024-01-11T00:41:19;35.03;;;21.60;;
52918;SDS011;38793;52.690;6.812;2024-01-11T00:43:44;38.10;;;22.00;;
52918;SDS011;38793;52.690;6.812;2024-01-11T00:46:10;34.77;;;20.70;;
52918;SDS011;38793;52.690;6.812;2024-01-11T00:48:36;40.63;;;23.30;;
52918;SDS011;38793;52.690;6.812;2024-01-11T00:51:01;36.90;;;22.70;;
52918;SDS011;38793;52.690;6.812;2024-01-11T00:53:29;37.78;;;22.83;;
52918;SDS011;38793;52.690;6.812;2024-01-11T00:55:57;39.75;;;23.35;;
52918;SDS011;38793;52.690;6.812;2024-01-11T00:58:22;41.03;;;24.00;;
52918;SDS011;38793;52.690;6.812;2024-01-11T01:00:48;41.03;;;23.63;;
52918;SDS011;38793;52.690;6.812;2024-01-11T01:03:14;38.58;;;22.58;;
52918;SDS011;38793;52.690;6.812;2024-01-11T01:05:41;41.85;;;24.00;;
52918;SDS011;38793;52.690;6.812;2024-01-11T01:08:07;40.22;;;22.92;;
52918;SDS011;38793;52.690;6.812;2024-01-11T01:10:33;44.03;;;24.73;;
52918;SDS011;38793;52.690;6.812;2024-01-11T01:12:58;43.43;;;25.87;;
52918;SDS011;38793;52.690;6.812;2024-01-11T01:15:24;44.73;;;25.67;;
52918;SDS011;38793;52.690;6.812;2024-01-11T01:17:50;40.77;;;23.87;;
52918;SDS011;38793;52.690;6.812;2024-01-11T01:20:15;42.50;;;25.97;;
52918;SDS011;38793;52.690;6.812;2024-01-11T01:22:41;42.27;;;25.83;;
52918;SDS011;38793;52.690;6.812;2024-01-11T01:25:06;40.97;;;25.67;;
52918;SDS011;38793;52.690;6.812;2024-01-11T01:27:32;44.10;;;26.65;;
52918;SDS011;38793;52.690;6.812;2024-01-11T01:29:58;43.30;;;25.50;;
52918;SDS011;38793;52.690;6.812;2024-01-11T01:32:23;43.17;;;25.97;;
52918;SDS011;38793;52.690;6.812;2024-01-11T01:34:49;44.07;;;24.50;;
52918;SDS011;38793;52.690;6.812;2024-01-11T01:37:15;49.17;;;27.70;;
52918;SDS011;38793;52.690;6.812;2024-01-11T01:39:41;48.43;;;28.63;;
52918;SDS011;38793;52.690;6.812;2024-01-11T01:42:07;48.78;;;27.45;;
52918;SDS011;38793;52.690;6.812;2024-01-11T01:44:33;46.53;;;26.58;;
52918;SDS011;38793;52.690;6.812;2024-01-11T01:47:00;45.97;;;27.17;;
52918;SDS011;38793;52.690;6.812;2024-01-11T01:49:27;48.80;;;27.30;;
52918;SDS011;38793;52.690;6.812;2024-01-11T01:51:52;46.60;;;27.95;;
52918;SDS011;38793;52.690;6.812;2024-01-11T01:54:19;48.72;;;26.85;;
52918;SDS011;38793;52.690;6.812;2024-01-11T01:56:47;47.22;;;26.77;;
52918;SDS011;38793;52.690;6.812;2024-01-11T01:59:13;43.13;;;25.90;;
52918;SDS011;38793;52.690;6.812;2024-01-11T02:01:40;47.83;;;26.33;;
52918;SDS011;38793;52.690;6.812;2024-01-11T02:04:06;44.63;;;26.03;;
52918;SDS011;38793;52.690;6.812;2024-01-11T02:06:32;45.00;;;26.90;;
52918;SDS011;38793;52.690;6.812;2024-01-11T02:08:59;45.88;;;25.88;;
52918;SDS011;38793;52.690;6.812;2024-01-11T02:11:28;45.58;;;26.25;;
52918;SDS011;38793;52.690;6.812;2024-01-11T02:13:54;47.30;;;26.53;;
52918;SDS011;38793;52.690;6.812;2024-01-11T02:16:20;48.75;;;28.33;;
52918;SDS011;38793;52.690;6.812;2024-01-11T02:18:45;46.70;;;27.37;;
52918;SDS011;38793;52.690;6.812;2024-01-11T02:21:11;44.83;;;25.83;;
52918;SDS011;38793;52.690;6.812;2024-01-11T02:23:42;46.33;;;27.90;;
52918;SDS011;38793;52.690;6.812;2024-01-11T02:26:14;44.78;;;27.33;;
52918;SDS011;38793;52.690;6.812;2024-01-11T02:28:44;47.40;;;27.38;;
52918;SDS011;38793;52.690;6.812;2024-01-11T02:31:10;48.25;;;28.42;;
52918;SDS011;38793;52.690;6.812;2024-01-11T02:33:37;52.75;;;31.45;;
52918;SDS011;38793;52.690;6.812;2024-01-11T02:36:04;49.75;;;29.55;;
52918;SDS011;38793;52.690;6.812;2024-01-11T02:38:30;48.78;;;29.58;;
52918;SDS011;38793;52.690;6.812;2024-01-11T02:40:58;46.25;;;28.05;;
52918;SDS011;38793;52.690;6.812;2024-01-11T02:45:50;49.15;;;26.75;;
52918;SDS011;38793;52.690;6.812;2024-01-11T02:48:19;52.88;;;28.20;;
52918;SDS011;38793;52.690;6.812;2024-01-11T02:50:44;50.03;;;27.63;;
52918;SDS011;38793;52.690;6.812;2024-01-11T02:53:10;48.10;;;28.23;;
52918;SDS011;38793;52.690;6.812;2024-01-11T02:55:35;48.97;;;29.80;;
52918;SDS011;38793;52.690;6.812;2024-01-11T02:58:01;48.43;;;28.30;;
52918;SDS011;38793;52.690;6.812;2024-01-11T03:00:27;49.60;;;27.87;;
52918;SDS011;38793;52.690;6.812;2024-01-11T03:02:52;52.90;;;29.90;;
52918;SDS011;38793;52.690;6.812;2024-01-11T03:05:18;50.53;;;27.77;;
52918;SDS011;38793;52.690;6.812;2024-01-11T03:07:43;49.30;;;28.07;;
52918;SDS011;38793;52.690;6.812;2024-01-11T03:10:09;50.03;;;29.20;;
52918;SDS011;38793;52.690;6.812;2024-01-11T03:12:35;53.13;;;28.80;;
52918;SDS011;38793;52.690;6.812;2024-01-11T03:15:00;49.50;;;30.20;;
52918;SDS011;38793;52.690;6.812;2024-01-11T03:17:26;52.17;;;29.73;;
52918;SDS011;38793;52.690;6.812;2024-01-11T03:19:52;52.07;;;29.70;;
52918;SDS011;38793;52.690;6.812;2024-01-11T03:22:17;54.90;;;31.27;;
52918;SDS011;38793;52.690;6.812;2024-01-11T03:24:43;52.10;;;30.23;;
52918;SDS011;38793;52.690;6.812;2024-01-11T03:27:08;49.83;;;29.00;;
52918;SDS011;38793;52.690;6.812;2024-01-11T03:29:34;52.13;;;30.10;;
52918;SDS011;38793;52.690;6.812;2024-01-11T03:32:00;50.83;;;29.10;;
52918;SDS011;38793;52.690;6.812;2024-01-11T03:34:25;52.53;;;27.80;;
52918;SDS011;38793;52.690;6.812;2024-01-11T03:36:51;54.37;;;30.17;;
52918;SDS011;38793;52.690;6.812;2024-01-11T03:39:16;52.03;;;29.00;;
52918;SDS011;38793;52.690;6.812;2024-01-11T03:41:46;50.95;;;30.50;;
52918;SDS011;38793;52.690;6.812;2024-01-11T03:44:12;60.28;;;31.50;;
52918;SDS011;38793;52.690;6.812;2024-01-11T03:46:38;54.08;;;30.15;;
52918;SDS011;38793;52.690;6.812;2024-01-11T03:49:04;52.00;;;28.47;;
52918;SDS011;38793;52.690;6.812;2024-01-11T03:51:29;54.30;;;30.77;;
52918;SDS011;38793;52.690;6.812;2024-01-11T03:53:55;57.50;;;30.70;;
52918;SDS011;38793;52.690;6.812;2024-01-11T03:56:20;54.00;;;30.00;;
52918;SDS011;38793;52.690;6.812;2024-01-11T03:58:46;52.63;;;30.37;;
52918;SDS011;38793;52.690;6.812;2024-01-11T04:01:12;56.23;;;31.77;;
52918;SDS011;38793;52.690;6.812;2024-01-11T04:03:37;57.70;;;30.63;;
52918;SDS011;38793;52.690;6.812;2024-01-11T04:06:03;54.53;;;30.08;;
52918;SDS011;38793;52.690;6.812;2024-01-11T04:08:29;52.15;;;30.55;;
52918;SDS011;38793;52.690;6.812;2024-01-11T04:10:54;47.90;;;28.43;;
52918;SDS011;38793;52.690;6.812;2024-01-11T04:13:20;55.50;;;30.40;;
52918;SDS011;38793;52.690;6.812;2024-01-11T04:15:46;52.17;;;29.17;;
52918;SDS011;38793;52.690;6.812;2024-01-11T04:18:12;56.35;;;31.48;;
52918;SDS011;38793;52.690;6.812;2024-01-11T04:20:38;52.90;;;29.95;;
52918;SDS011;38793;52.690;6.812;2024-01-11T04:23:04;56.10;;;29.87;;
52918;SDS011;38793;52.690;6.812;2024-01-11T04:25:29;53.53;;;30.47;;
52918;SDS011;38793;52.690;6.812;2024-01-11T04:27:55;54.10;;;29.40;;
52918;SDS011;38793;52.690;6.812;2024-01-11T04:30:21;52.97;;;30.67;;
52918;SDS011;38793;52.690;6.812;2024-01-11T04:32:46;59.80;;;30.10;;
52918;SDS011;38793;52.690;6.812;2024-01-11T04:35:12;56.57;;;31.43;;
52918;SDS011;38793;52.690;6.812;2024-01-11T04:37:37;55.37;;;31.03;;
52918;SDS011;38793;52.690;6.812;2024-01-11T04:40:03;59.60;;;31.90;;
52918;SDS011;38793;52.690;6.812;2024-01-11T04:42:30;53.92;;;29.63;;
52918;SDS011;38793;52.690;6.812;2024-01-11T04:44:55;54.77;;;30.37;;
52918;SDS011;38793;52.690;6.812;2024-01-11T04:47:21;51.57;;;28.77;;
52918;SDS011;38793;52.690;6.812;2024-01-11T04:49:47;57.97;;;31.07;;
52918;SDS011;38793;52.690;6.812;2024-01-11T04:52:12;56.73;;;29.77;;
52918;SDS011;38793;52.690;6.812;2024-01-11T04:54:38;55.63;;;29.50;;
52918;SDS011;38793;52.690;6.812;2024-01-11T04:57:03;51.23;;;28.43;;
52918;SDS011;38793;52.690;6.812;2024-01-11T04:59:30;54.15;;;29.13;;
52918;SDS011;38793;52.690;6.812;2024-01-11T05:01:56;58.90;;;30.37;;
52918;SDS011;38793;52.690;6.812;2024-01-11T05:04:21;53.50;;;29.83;;
52918;SDS011;38793;52.690;6.812;2024-01-11T05:06:47;59.83;;;31.47;;
52918;SDS011;38793;52.690;6.812;2024-01-11T05:09:12;53.77;;;29.70;;
52918;SDS011;38793;52.690;6.812;2024-01-11T05:14:04;51.17;;;29.10;;
52918;SDS011;38793;52.690;6.812;2024-01-11T05:16:30;58.77;;;30.03;;
52918;SDS011;38793;52.690;6.812;2024-01-11T05:18:56;55.63;;;31.37;;
52918;SDS011;38793;52.690;6.812;2024-01-11T05:21:22;58.63;;;30.20;;
52918;SDS011;38793;52.690;6.812;2024-01-11T05:23:49;56.13;;;32.00;;
52918;SDS011;38793;52.690;6.812;2024-01-11T05:26:15;58.57;;;30.67;;
52918;SDS011;38793;52.690;6.812;2024-01-11T05:28:41;55.05;;;30.95;;
52918;SDS011;38793;52.690;6.812;2024-01-11T05:31:07;54.00;;;32.23;;
52918;SDS011;38793;52.690;6.812;2024-01-11T05:33:40;56.47;;;31.65;;
52918;SDS011;38793;52.690;6.812;2024-01-11T05:36:06;61.53;;;31.08;;
52918;SDS011;38793;52.690;6.812;2024-01-11T05:38:32;62.15;;;32.65;;
52918;SDS011;38793;52.690;6.812;2024-01-11T05:40:58;60.13;;;32.60;;
52918;SDS011;38793;52.690;6.812;2024-01-11T05:43:24;65.18;;;34.38;;
52918;SDS011;38793;52.690;6.812;2024-01-11T05:45:49;61.80;;;32.40;;
52918;SDS011;38793;52.690;6.812;2024-01-11T05:48:16;59.58;;;32.90;;
52918;SDS011;38793;52.690;6.812;2024-01-11T05:50:42;59.10;;;31.42;;
52918;SDS011;38793;52.690;6.812;2024-01-11T05:53:08;60.05;;;33.78;;
52918;SDS011;38793;52.690;6.812;2024-01-11T05:55:34;67.75;;;34.28;;
52918;SDS011;38793;52.690;6.812;2024-01-11T05:58:00;67.83;;;35.03;;
52918;SDS011;38793;52.690;6.812;2024-01-11T06:00:26;69.07;;;34.03;;
52918;SDS011;38793;52.690;6.812;2024-01-11T06:02:51;64.70;;;34.30;;
52918;SDS011;38793;52.690;6.812;2024-01-11T06:05:18;62.72;;;32.45;;
52918;SDS011;38793;52.690;6.812;2024-01-11T06:07:44;60.97;;;31.95;;
52918;SDS011;38793;52.690;6.812;2024-01-11T06:10:09;62.23;;;33.33;;
52918;SDS011;38793;52.690;6.812;2024-01-11T06:12:35;55.30;;;29.97;;
52918;SDS011;38793;52.690;6.812;2024-01-11T06:15:01;65.90;;;34.08;;
52918;SDS011;38793;52.690;6.812;2024-01-11T06:19:54;58.55;;;30.63;;
52918;SDS011;38793;52.690;6.812;2024-01-11T06:22:20;62.88;;;31.35;;
52918;SDS011;38793;52.690;6.812;2024-01-11T06:24:45;71.83;;;33.20;;
52918;SDS011;38793;52.690;6.812;2024-01-11T06:27:11;63.58;;;34.28;;
52918;SDS011;38793;52.690;6.812;2024-01-11T06:29:37;61.37;;;32.87;;
52918;SDS011;38793;52.690;6.812;2024-01-11T06:32:02;59.73;;;32.83;;
52918;SDS011;38793;52.690;6.812;2024-01-11T06:34:28;58.67;;;31.90;;
52918;SDS011;38793;52.690;6.812;2024-01-11T06:36:54;58.30;;;33.03;;
52918;SDS011;38793;52.690;6.812;2024-01-11T06:39:20;64.75;;;34.80;;
52918;SDS011;38793;52.690;6.812;2024-01-11T06:41:46;59.78;;;33.95;;
52918;SDS011;38793;52.690;6.812;2024-01-11T06:44:11;61.67;;;33.20;;
52918;SDS011;38793;52.690;6.812;2024-01-11T06:46:37;64.70;;;32.53;;
52918;SDS011;38793;52.690;6.812;2024-01-11T06:49:07;68.07;;;35.65;;
52918;SDS011;38793;52.690;6.812;2024-01-11T06:51:32;71.00;;;35.15;;
52918;SDS011;38793;52.690;6.812;2024-01-11T06:53:59;70.27;;;36.23;;
52918;SDS011;38793;52.690;6.812;2024-01-11T06:56:26;67.47;;;36.78;;
52918;SDS011;38793;52.690;6.812;2024-01-11T06:58:52;68.43;;;36.03;;
52918;SDS011;38793;52.690;6.812;2024-01-11T07:01:17;74.57;;;36.73;;
52918;SDS011;38793;52.690;6.812;2024-01-11T07:03:43;73.20;;;39.00;;
52918;SDS011;38793;52.690;6.812;2024-01-11T07:06:09;72.13;;;35.13;;
52918;SDS011;38793;52.690;6.812;2024-01-11T07:08:35;67.50;;;35.37;;
52918;SDS011;38793;52.690;6.812;2024-01-11T07:11:01;69.30;;;31.90;;
52918;SDS011;38793;52.690;6.812;2024-01-11T07:13:29;69.22;;;34.70;;
52918;SDS011;38793;52.690;6.812;2024-01-11T07:15:56;74.75;;;37.90;;
52918;SDS011;38793;52.690;6.812;2024-01-11T07:20:49;73.75;;;34.55;;
52918;SDS011;38793;52.690;6.812;2024-01-11T07:23:15;77.07;;;37.92;;
52918;SDS011;38793;52.690;6.812;2024-01-11T07:25:42;78.65;;;38.00;;
52918;SDS011;38793;52.690;6.812;2024-01-11T07:28:07;82.15;;;38.42;;
52918;SDS011;38793;52.690;6.812;2024-01-11T07:30:33;83.78;;;37.83;;
52918;SDS011;38793;52.690;6.812;2024-01-11T07:32:59;88.07;;;39.47;;
52918;SDS011;38793;52.690;6.812;2024-01-11T07:35:25;95.47;;;41.30;;
52918;SDS011;38793;52.690;6.812;2024-01-11T07:37:51;90.53;;;40.67;;
52918;SDS011;38793;52.690;6.812;2024-01-11T07:40:16;91.77;;;38.63;;
52918;SDS011;38793;52.690;6.812;2024-01-11T07:42:42;80.03;;;39.17;;
52918;SDS011;38793;52.690;6.812;2024-01-11T07:45:08;86.95;;;39.20;;
52918;SDS011;38793;52.690;6.812;2024-01-11T07:47:39;78.47;;;36.33;;
52918;SDS011;38793;52.690;6.812;2024-01-11T07:50:05;86.47;;;39.60;;
52918;SDS011;38793;52.690;6.812;2024-01-11T07:52:32;90.20;;;39.28;;
52918;SDS011;38793;52.690;6.812;2024-01-11T07:54:58;85.60;;;40.20;;
52918;SDS011;38793;52.690;6.812;2024-01-11T07:57:31;91.30;;;40.17;;
52918;SDS011;38793;52.690;6.812;2024-01-11T07:59:58;93.30;;;40.22;;
52918;SDS011;38793;52.690;6.812;2024-01-11T08:02:24;86.40;;;40.90;;
52918;SDS011;38793;52.690;6.812;2024-01-11T08:04:50;86.00;;;38.85;;
52918;SDS011;38793;52.690;6.812;2024-01-11T08:07:15;93.60;;;42.83;;
52918;SDS011;38793;52.690;6.812;2024-01-11T08:09:41;94.13;;;41.50;;
52918;SDS011;38793;52.690;6.812;2024-01-11T08:12:13;93.45;;;41.70;;
52918;SDS011;38793;52.690;6.812;2024-01-11T08:14:39;95.50;;;43.05;;
52918;SDS011;38793;52.690;6.812;2024-01-11T08:17:07;95.90;;;42.58;;
52918;SDS011;38793;52.690;6.812;2024-01-11T08:19:33;106.45;;;45.08;;
52918;SDS011;38793;52.690;6.812;2024-01-11T08:21:59;96.78;;;41.85;;
52918;SDS011;38793;52.690;6.812;2024-01-11T08:24:25;97.10;;;42.00;;
52918;SDS011;38793;52.690;6.812;2024-01-11T08:26:51;91.77;;;45.13;;
52918;SDS011;38793;52.690;6.812;2024-01-11T08:31:44;87.65;;;41.03;;
52918;SDS011;38793;52.690;6.812;2024-01-11T08:34:10;98.40;;;43.40;;
52918;SDS011;38793;52.690;6.812;2024-01-11T08:36:36;97.50;;;43.90;;
52918;SDS011;38793;52.690;6.812;2024-01-11T08:39:03;93.32;;;41.42;;
52918;SDS011;38793;52.690;6.812;2024-01-11T08:41:33;95.93;;;40.92;;
52918;SDS011;38793;52.690;6.812;2024-01-11T08:44:00;103.10;;;44.80;;
52918;SDS011;38793;52.690;6.812;2024-01-11T08:46:27;102.55;;;45.67;;
52918;SDS011;38793;52.690;6.812;2024-01-11T08:48:53;101.23;;;43.57;;
52918;SDS011;38793;52.690;6.812;2024-01-11T08:51:21;106.60;;;47.13;;
52918;SDS011;38793;52.690;6.812;2024-01-11T08:53:46;99.63;;;41.97;;
52918;SDS011;38793;52.690;6.812;2024-01-11T08:56:12;95.57;;;42.72;;
52918;SDS011;38793;52.690;6.812;2024-01-11T09:01:07;99.95;;;42.25;;
52918;SDS011;38793;52.690;6.812;2024-01-11T09:03:35;107.22;;;45.22;;
52918;SDS011;38793;52.690;6.812;2024-01-11T09:06:04;102.70;;;45.13;;
52918;SDS011;38793;52.690;6.812;2024-01-11T09:08:29;106.63;;;47.75;;
52918;SDS011;38793;52.690;6.812;2024-01-11T09:10:55;98.23;;;41.80;;
52918;SDS011;38793;52.690;6.812;2024-01-11T09:13:23;100.72;;;44.65;;
52918;SDS011;38793;52.690;6.812;2024-01-11T09:15:49;96.82;;;43.17;;
52918;SDS011;38793;52.690;6.812;2024-01-11T09:18:14;104.33;;;45.10;;
52918;SDS011;38793;52.690;6.812;2024-01-11T09:20:41;97.90;;;42.45;;
52918;SDS011;38793;52.690;6.812;2024-01-11T09:23:06;95.30;;;46.10;;
52918;SDS011;38793;52.690;6.812;2024-01-11T09:25:33;91.20;;;41.30;;
52918;SDS011;38793;52.690;6.812;2024-01-11T09:27:59;101.53;;;42.80;;
52918;SDS011;38793;52.690;6.812;2024-01-11T09:30:24;102.55;;;44.58;;
52918;SDS011;38793;52.690;6.812;2024-01-11T09:32:50;104.20;;;44.67;;
52918;SDS011;38793;52.690;6.812;2024-01-11T09:35:16;95.05;;;44.50;;
52918;SDS011;38793;52.690;6.812;2024-01-11T09:37:42;107.50;;;46.90;;
52918;SDS011;38793;52.690;6.812;2024-01-11T09:40:11;96.00;;;42.88;;
52918;SDS011;38793;52.690;6.812;2024-01-11T09:42:38;93.72;;;43.00;;
52918;SDS011;38793;52.690;6.812;2024-01-11T09:45:07;88.97;;;41.35;;
52918;SDS011;38793;52.690;6.812;2024-01-11T09:47:35;95.80;;;42.25;;
52918;SDS011;38793;52.690;6.812;2024-01-11T09:50:04;100.85;;;42.10;;
52918;SDS011;38793;52.690;6.812;2024-01-11T09:52:33;99.15;;;46.17;;
52918;SDS011;38793;52.690;6.812;2024-01-11T09:54:59;103.80;;;42.88;;
52918;SDS011;38793;52.690;6.812;2024-01-11T09:57:29;88.88;;;41.00;;
52918;SDS011;38793;52.690;6.812;2024-01-11T09:59:56;103.30;;;44.80;;
52918;SDS011;38793;52.690;6.812;2024-01-11T10:02:26;97.30;;;44.35;;
52918;SDS011;38793;52.690;6.812;2024-01-11T10:04:52;90.97;;;42.17;;
52918;SDS011;38793;52.690;6.812;2024-01-11T10:07:19;97.35;;;45.50;;
52918;SDS011;38793;52.690;6.812;2024-01-11T10:09:49;97.97;;;45.22;;
52918;SDS011;38793;52.690;6.812;2024-01-11T10:12:16;95.20;;;42.40;;
52918;SDS011;38793;52.690;6.812;2024-01-11T10:14:45;93.70;;;42.05;;
52918;SDS011;38793;52.690;6.812;2024-01-11T10:17:11;105.70;;;46.95;;
52918;SDS011;38793;52.690;6.812;2024-01-11T10:19:37;103.20;;;45.70;;
52918;SDS011;38793;52.690;6.812;2024-01-11T10:22:02;97.70;;;46.13;;
52918;SDS011;38793;52.690;6.812;2024-01-11T10:24:29;103.18;;;45.05;;
52918;SDS011;38793;52.690;6.812;2024-01-11T10:26:55;97.33;;;44.53;;
52918;SDS011;38793;52.690;6.812;2024-01-11T10:29:22;96.75;;;42.88;;
52918;SDS011;38793;52.690;6.812;2024-01-11T10:31:49;93.13;;;43.85;;
52918;SDS011;38793;52.690;6.812;2024-01-11T10:34:16;97.82;;;42.25;;
52918;SDS011;38793;52.690;6.812;2024-01-11T10:36:41;91.57;;;40.23;;
52918;SDS011;38793;52.690;6.812;2024-01-11T10:39:08;91.45;;;42.45;;
52918;SDS011;38793;52.690;6.812;2024-01-11T10:41:41;95.75;;;40.67;;
52918;SDS011;38793;52.690;6.812;2024-01-11T10:44:20;90.97;;;41.40;;
52918;SDS011;38793;52.690;6.812;2024-01-11T10:46:47;76.78;;;39.15;;
52918;SDS011;38793;52.690;6.812;2024-01-11T10:49:19;88.20;;;42.38;;
52918;SDS011;38793;52.690;6.812;2024-01-11T10:51:45;84.88;;;41.00;;
52918;SDS011;38793;52.690;6.812;2024-01-11T10:54:23;87.63;;;40.45;;
52918;SDS011;38793;52.690;6.812;2024-01-11T10:56:49;88.95;;;41.17;;
52918;SDS011;38793;52.690;6.812;2024-01-11T11:01:42;87.82;;;36.85;;
52918;SDS011;38793;52.690;6.812;2024-01-11T11:04:10;88.18;;;39.25;;
52918;SDS011;38793;52.690;6.812;2024-01-11T11:09:03;88.07;;;38.28;;
52918;SDS011;38793;52.690;6.812;2024-01-11T11:11:30;99.75;;;41.88;;
52918;SDS011;38793;52.690;6.812;2024-01-11T11:14:00;97.13;;;43.00;;
52918;SDS011;38793;52.690;6.812;2024-01-11T11:16:27;95.72;;;42.78;;
52918;SDS011;38793;52.690;6.812;2024-01-11T11:18:56;103.37;;;41.57;;
52918;SDS011;38793;52.690;6.812;2024-01-11T11:21:21;92.43;;;40.78;;
52918;SDS011;38793;52.690;6.812;2024-01-11T11:23:49;88.78;;;39.78;;
52918;SDS011;38793;52.690;6.812;2024-01-11T11:26:16;97.25;;;42.45;;
52918;SDS011;38793;52.690;6.812;2024-01-11T11:28:42;96.90;;;40.70;;
52918;SDS011;38793;52.690;6.812;2024-01-11T11:31:10;87.85;;;39.97;;
52918;SDS011;38793;52.690;6.812;2024-01-11T11:33:40;85.13;;;38.17;;
52918;SDS011;38793;52.690;6.812;2024-01-11T11:36:06;95.65;;;38.97;;
52918;SDS011;38793;52.690;6.812;2024-01-11T11:38:37;92.00;;;38.92;;
52918;SDS011;38793;52.690;6.812;2024-01-11T11:41:04;93.95;;;41.60;;
52918;SDS011;38793;52.690;6.812;2024-01-11T11:43:29;92.15;;;42.10;;
52918;SDS011;38793;52.690;6.812;2024-01-11T11:45:57;85.45;;;38.35;;
52918;SDS011;38793;52.690;6.812;2024-01-11T11:51:02;80.60;;;36.17;;
52918;SDS011;38793;52.690;6.812;2024-01-11T11:53:32;78.35;;;35.25;;
52918;SDS011;38793;52.690;6.812;2024-01-11T11:55:58;79.60;;;37.35;;
52918;SDS011;38793;52.690;6.812;2024-01-11T11:58:24;85.70;;;37.60;;
52918;SDS011;38793;52.690;6.812;2024-01-11T12:00:50;74.63;;;34.63;;
52918;SDS011;38793;52.690;6.812;2024-01-11T12:03:16;73.17;;;33.50;;
52918;SDS011;38793;52.690;6.812;2024-01-11T12:05:42;73.22;;;33.67;;
52918;SDS011;38793;52.690;6.812;2024-01-11T12:08:08;74.65;;;35.38;;
52918;SDS011;38793;52.690;6.812;2024-01-11T12:10:34;71.23;;;35.50;;
52918;SDS011;38793;52.690;6.812;2024-01-11T12:13:00;75.73;;;34.83;;
52918;SDS011;38793;52.690;6.812;2024-01-11T12:15:29;74.10;;;35.65;;
52918;SDS011;38793;52.690;6.812;2024-01-11T12:17:57;72.53;;;33.05;;
52918;SDS011;38793;52.690;6.812;2024-01-11T12:20:24;70.85;;;34.45;;
52918;SDS011;38793;52.690;6.812;2024-01-11T12:22:49;74.13;;;34.83;;
52918;SDS011;38793;52.690;6.812;2024-01-11T12:25:15;77.77;;;35.67;;
52918;SDS011;38793;52.690;6.812;2024-01-11T12:27:41;68.28;;;32.60;;
52918;SDS011;38793;52.690;6.812;2024-01-11T12:30:07;71.55;;;32.90;;
52918;SDS011;38793;52.690;6.812;2024-01-11T12:32:36;66.32;;;32.22;;
52918;SDS011;38793;52.690;6.812;2024-01-11T12:35:02;70.55;;;32.80;;
52918;SDS011;38793;52.690;6.812;2024-01-11T12:37:30;71.50;;;32.88;;
52918;SDS011;38793;52.690;6.812;2024-01-11T12:39:59;70.95;;;33.20;;
52918;SDS011;38793;52.690;6.812;2024-01-11T12:42:25;70.57;;;32.97;;
52918;SDS011;38793;52.690;6.812;2024-01-11T12:44:55;64.03;;;31.42;;
52918;SDS011;38793;52.690;6.812;2024-01-11T12:47:21;65.10;;;32.38;;
52918;SDS011;38793;52.690;6.812;2024-01-11T12:49:47;67.43;;;31.75;;
52918;SDS011;38793;52.690;6.812;2024-01-11T12:52:16;57.27;;;27.10;;
52918;SDS011;38793;52.690;6.812;2024-01-11T12:54:42;70.22;;;34.53;;
52918;SDS011;38793;52.690;6.812;2024-01-11T12:57:19;59.20;;;29.25;;
52918;SDS011;38793;52.690;6.812;2024-01-11T12:59:46;62.53;;;28.30;;
52918;SDS011;38793;52.690;6.812;2024-01-11T13:02:11;56.90;;;29.38;;
52918;SDS011;38793;52.690;6.812;2024-01-11T13:04:40;62.58;;;29.83;;
52918;SDS011;38793;52.690;6.812;2024-01-11T13:07:07;58.22;;;28.35;;
52918;SDS011;38793;52.690;6.812;2024-01-11T13:12:00;58.60;;;27.90;;
52918;SDS011;38793;52.690;6.812;2024-01-11T13:14:25;62.83;;;27.17;;
52918;SDS011;38793;52.690;6.812;2024-01-11T13:16:51;54.77;;;25.87;;
52918;SDS011;38793;52.690;6.812;2024-01-11T13:19:17;68.15;;;28.65;;
52918;SDS011;38793;52.690;6.812;2024-01-11T13:21:43;60.40;;;27.87;;
52918;SDS011;38793;52.690;6.812;2024-01-11T13:24:08;54.20;;;27.33;;
52918;SDS011;38793;52.690;6.812;2024-01-11T13:26:35;56.35;;;27.88;;
52918;SDS011;38793;52.690;6.812;2024-01-11T13:29:06;56.72;;;30.05;;
52918;SDS011;38793;52.690;6.812;2024-01-11T13:31:32;56.42;;;27.92;;
52918;SDS011;38793;52.690;6.812;2024-01-11T13:33:58;55.60;;;28.30;;
52918;SDS011;38793;52.690;6.812;2024-01-11T13:36:24;66.32;;;28.00;;
52918;SDS011;38793;52.690;6.812;2024-01-11T13:38:50;56.53;;;26.63;;
52918;SDS011;38793;52.690;6.812;2024-01-11T13:41:16;57.33;;;26.85;;
52918;SDS011;38793;52.690;6.812;2024-01-11T13:43:45;102.53;;;30.52;;
52918;SDS011;38793;52.690;6.812;2024-01-11T13:46:11;56.63;;;27.05;;
52918;SDS011;38793;52.690;6.812;2024-01-11T13:48:39;58.97;;;28.15;;
52918;SDS011;38793;52.690;6.812;2024-01-11T13:51:04;88.37;;;29.67;;
52918;SDS011;38793;52.690;6.812;2024-01-11T13:53:30;64.63;;;27.70;;
52918;SDS011;38793;52.690;6.812;2024-01-11T13:55:56;63.63;;;29.47;;
52918;SDS011;38793;52.690;6.812;2024-01-11T13:58:22;67.13;;;27.08;;
52918;SDS011;38793;52.690;6.812;2024-01-11T14:00:48;61.25;;;27.60;;
52918;SDS011;38793;52.690;6.812;2024-01-11T14:03:13;66.07;;;28.17;;
52918;SDS011;38793;52.690;6.812;2024-01-11T14:05:39;67.60;;;30.03;;
52918;SDS011;38793;52.690;6.812;2024-01-11T14:08:05;70.03;;;27.87;;
52918;SDS011;38793;52.690;6.812;2024-01-11T14:10:32;62.20;;;28.20;;
52918;SDS011;38793;52.690;6.812;2024-01-11T14:13:02;54.47;;;26.13;;
52918;SDS011;38793;52.690;6.812;2024-01-11T14:15:28;59.13;;;28.15;;
52918;SDS011;38793;52.690;6.812;2024-01-11T14:17:53;69.55;;;29.95;;
52918;SDS011;38793;52.690;6.812;2024-01-11T14:20:19;71.50;;;29.00;;
52918;SDS011;38793;52.690;6.812;2024-01-11T14:22:46;61.53;;;28.42;;
52918;SDS011;38793;52.690;6.812;2024-01-11T14:25:19;66.25;;;28.30;;
52918;SDS011;38793;52.690;6.812;2024-01-11T14:27:49;65.25;;;28.02;;
52918;SDS011;38793;52.690;6.812;2024-01-11T14:30:15;65.00;;;31.52;;
52918;SDS011;38793;52.690;6.812;2024-01-11T14:32:41;72.20;;;31.50;;
52918;SDS011;38793;52.690;6.812;2024-01-11T14:35:07;68.43;;;30.02;;
52918;SDS011;38793;52.690;6.812;2024-01-11T14:37:33;65.10;;;29.60;;
52918;SDS011;38793;52.690;6.812;2024-01-11T14:40:00;65.55;;;28.90;;
52918;SDS011;38793;52.690;6.812;2024-01-11T14:42:26;72.95;;;30.65;;
52918;SDS011;38793;52.690;6.812;2024-01-11T14:44:53;72.65;;;30.65;;